Time;durP1;ratioP1;P1;durP2;ratioP2;P2;SDS_P1;SDS_P2;PMS_P1;PMS_P2;Temp;Humidity;BMP_temperature;BMP_pressure;BME280_temperature;BME280_humidity;BME280_pressure;Samples;Min_cycle;Max_cycle;Signal;HPM_P1;HPM_P2
2022/04/23 00:01:12;;;;;;;21.73;10.45;;;11.20;99.90;;;;;;5067790;28;20029;-67
2022/04/23 00:03:37;;;;;;;18.58;9.57;;;11.30;99.90;;;;;;5068084;28;20033;-67
2022/04/23 00:06:03;;;;;;;25.73;9.80;;;11.30;99.90;;;;;;5069184;28;20032;-68
2022/04/23 00:08:29;;;;;;;21.38;9.63;;;11.30;99.90;;;;;;5070844;28;20081;-67
2022/04/23 00:10:55;;;;;;;23.75;9.77;;;11.30;99.90;;;;;;5070647;28;20024;-67
2022/04/23 00:13:22;;;;;;;23.35;10.30;;;11.30;99.90;;;;;;5070652;28;20469;-68
2022/04/23 00:15:47;;;;;;;18.80;9.60;;;11.30;99.90;;;;;;5070793;28;20025;-67
2022/04/23 00:18:13;;;;;;;20.48;10.07;;;11.20;99.90;;;;;;5070667;28;20032;-67
2022/04/23 00:20:39;;;;;;;28.75;9.45;;;11.20;99.90;;;;;;5070583;28;20020;-67
2022/04/23 00:23:06;;;;;;;26.13;10.23;;;11.20;99.90;;;;;;5070897;28;20147;-68
2022/04/23 00:25:36;;;;;;;23.15;9.75;;;11.20;99.90;;;;;;5067615;28;20391;-68
2022/04/23 00:28:01;;;;;;;18.77;9.35;;;11.20;99.90;;;;;;5067452;28;20020;-69
2022/04/23 00:30:27;;;;;;;23.02;9.65;;;11.20;99.90;;;;;;5069234;28;20032;-69
2022/04/23 00:32:57;;;;;;;21.52;9.93;;;11.20;99.90;;;;;;5070440;28;20037;-69
2022/04/23 00:35:23;;;;;;;20.33;10.02;;;11.20;99.90;;;;;;5070161;28;20048;-68
2022/04/23 00:37:48;;;;;;;20.88;9.65;;;11.20;99.90;;;;;;5070746;28;20051;-69
2022/04/23 00:40:17;;;;;;;22.20;9.48;;;11.20;99.90;;;;;;5070488;28;20055;-68
2022/04/23 00:42:57;;;;;;;20.67;9.63;;;11.20;99.90;;;;;;5070284;28;20031;-68
2022/04/23 00:45:24;;;;;;;27.03;10.00;;;11.20;99.90;;;;;;5070129;28;20519;-68
2022/04/23 00:47:50;;;;;;;21.25;10.32;;;11.20;99.90;;;;;;5070238;28;20507;-69
2022/04/23 00:50:23;;;;;;;22.75;10.23;;;11.20;99.90;;;;;;5070633;28;20055;-69
2022/04/23 00:52:54;;;;;;;21.02;9.38;;;11.20;99.90;;;;;;5070177;28;20078;-68
2022/04/23 00:55:20;;;;;;;16.85;10.07;;;11.20;99.90;;;;;;5069768;28;20445;-69
2022/04/23 00:57:46;;;;;;;24.13;10.13;;;11.20;99.90;;;;;;5069892;28;20032;-68
2022/04/23 01:00:12;;;;;;;25.02;10.75;;;11.20;99.90;;;;;;5067329;28;20043;-68
2022/04/23 01:02:38;;;;;;;21.33;10.63;;;11.20;99.90;;;;;;5066904;28;20540;-68
2022/04/23 01:05:09;;;;;;;21.75;10.05;;;11.20;99.90;;;;;;5066920;28;20044;-68
2022/04/23 01:07:42;;;;;;;27.45;10.90;;;11.10;99.90;;;;;;5066941;28;20477;-68
2022/04/23 01:10:09;;;;;;;19.30;10.15;;;11.20;99.90;;;;;;5067271;28;20362;-69
2022/04/23 01:12:35;;;;;;;21.15;10.75;;;11.20;99.90;;;;;;5069731;28;20068;-67
2022/04/23 01:15:07;;;;;;;23.52;10.07;;;11.20;99.90;;;;;;5069719;28;20032;-69
2022/04/23 01:17:33;;;;;;;23.02;10.00;;;11.20;99.90;;;;;;5070005;28;20024;-68
2022/04/23 01:20:08;;;;;;;26.80;11.20;;;11.20;99.90;;;;;;5069601;28;20017;-69
2022/04/23 01:22:36;;;;;;;28.52;10.63;;;11.20;99.90;;;;;;5049973;28;20086;-68
2022/04/23 01:25:05;;;;;;;21.40;10.63;;;11.10;99.90;;;;;;5054517;28;20492;-68
2022/04/23 01:27:33;;;;;;;23.67;11.02;;;11.10;99.90;;;;;;5069585;28;20027;-69
2022/04/23 01:29:59;;;;;;;24.05;10.18;;;11.10;99.90;;;;;;5069887;28;20059;-68
2022/04/23 01:32:25;;;;;;;23.98;11.32;;;11.20;99.90;;;;;;5069799;28;20425;-68
2022/04/23 01:34:50;;;;;;;28.00;11.13;;;11.20;99.90;;;;;;5068166;28;20058;-69
2022/04/23 01:37:19;;;;;;;25.55;10.75;;;11.10;99.90;;;;;;5067488;28;20024;-69
2022/04/23 01:39:47;;;;;;;26.30;11.63;;;11.10;99.90;;;;;;5069723;28;20032;-69
2022/04/23 01:42:13;;;;;;;24.88;11.60;;;11.10;99.90;;;;;;5069571;28;20460;-68
2022/04/23 01:44:39;;;;;;;26.50;10.82;;;11.20;99.90;;;;;;5069514;28;20044;-69
2022/04/23 01:47:05;;;;;;;28.92;12.02;;;11.10;99.90;;;;;;5067060;28;20066;-69
2022/04/23 01:49:30;;;;;;;22.33;11.32;;;11.20;99.90;;;;;;5066517;28;20039;-69
2022/04/23 01:51:56;;;;;;;22.33;10.45;;;11.10;99.90;;;;;;5068860;28;20103;-68
2022/04/23 01:54:22;;;;;;;26.65;11.13;;;11.10;99.90;;;;;;5069696;28;20021;-68
2022/04/23 01:56:48;;;;;;;26.20;10.63;;;11.20;99.90;;;;;;5069288;28;20039;-70
2022/04/23 01:59:13;;;;;;;28.15;11.75;;;11.20;99.90;;;;;;5069571;28;20020;-69
2022/04/23 02:01:41;;;;;;;25.25;12.00;;;11.10;99.90;;;;;;5069638;28;20787;-69
2022/04/23 02:04:07;;;;;;;30.75;12.50;;;11.20;99.90;;;;;;5069457;28;20032;-69
2022/04/23 02:06:35;;;;;;;30.35;12.23;;;11.20;99.90;;;;;;5070444;28;20047;-68
2022/04/23 02:09:02;;;;;;;26.08;11.77;;;11.20;99.90;;;;;;5073299;28;20029;-68
2022/04/23 02:11:28;;;;;;;33.15;11.35;;;11.20;99.90;;;;;;5073009;28;20032;-69
2022/04/23 02:13:54;;;;;;;23.55;12.15;;;11.20;99.90;;;;;;5073308;28;20040;-69
2022/04/23 02:16:20;;;;;;;24.08;11.32;;;11.20;99.90;;;;;;5073227;28;20081;-69
2022/04/23 02:18:46;;;;;;;25.48;12.38;;;11.20;99.90;;;;;;5073010;28;20028;-69
2022/04/23 02:21:11;;;;;;;29.90;12.70;;;11.20;99.90;;;;;;5072953;28;20024;-68
2022/04/23 02:23:37;;;;;;;29.73;12.57;;;11.20;99.90;;;;;;5072751;28;20020;-68
2022/04/23 02:26:05;;;;;;;25.33;11.70;;;11.20;99.90;;;;;;5073096;28;20031;-68
2022/04/23 02:28:31;;;;;;;30.25;12.38;;;11.20;99.90;;;;;;5072923;28;20112;-69
2022/04/23 02:30:57;;;;;;;28.45;12.40;;;11.20;99.90;;;;;;5072909;28;20115;-68
2022/04/23 02:33:23;;;;;;;26.17;11.45;;;11.20;99.90;;;;;;5072876;28;20021;-68
2022/04/23 02:35:50;;;;;;;30.27;11.80;;;11.20;99.90;;;;;;5072629;28;20051;-68
2022/04/23 02:38:17;;;;;;;30.08;11.23;;;11.20;99.90;;;;;;5072623;28;20527;-68
2022/04/23 02:40:43;;;;;;;24.83;11.73;;;11.20;99.90;;;;;;5072514;28;20754;-69
2022/04/23 02:43:12;;;;;;;27.60;11.32;;;11.20;99.90;;;;;;5072596;28;20031;-68
2022/04/23 02:45:38;;;;;;;27.13;11.95;;;11.20;99.90;;;;;;5072745;28;20040;-68
2022/04/23 02:48:04;;;;;;;27.75;11.55;;;11.20;99.90;;;;;;5072538;28;20469;-68
2022/04/23 02:50:34;;;;;;;30.77;12.52;;;11.20;99.90;;;;;;5072531;28;20029;-68
2022/04/23 02:53:00;;;;;;;27.58;12.40;;;11.10;99.90;;;;;;5072597;28;20508;-68
2022/04/23 02:55:28;;;;;;;25.25;11.93;;;11.10;99.90;;;;;;5072145;28;20028;-68
2022/04/23 02:57:56;;;;;;;25.25;11.75;;;11.10;99.90;;;;;;5072367;28;20020;-68
2022/04/23 03:00:22;;;;;;;27.55;13.27;;;11.10;99.90;;;;;;5072209;28;20115;-68
2022/04/23 03:02:48;;;;;;;26.52;12.85;;;11.10;99.90;;;;;;5072261;28;20155;-68
2022/04/23 03:05:14;;;;;;;27.30;12.27;;;11.10;99.90;;;;;;5072194;28;20052;-68
2022/04/23 03:07:40;;;;;;;28.50;12.23;;;11.10;99.90;;;;;;5072140;28;20024;-68
2022/04/23 03:10:08;;;;;;;34.08;12.55;;;11.20;99.90;;;;;;5072278;28;20472;-68
2022/04/23 03:12:36;;;;;;;30.73;11.90;;;11.10;99.90;;;;;;5071881;28;20104;-68
2022/04/23 03:15:03;;;;;;;27.98;12.52;;;11.20;99.90;;;;;;5071877;28;20397;-68
2022/04/23 03:17:30;;;;;;;29.83;14.00;;;11.20;99.90;;;;;;5068937;28;20100;-68
2022/04/23 03:19:57;;;;;;;30.50;12.93;;;11.20;99.90;;;;;;5069370;28;20033;-68
2022/04/23 03:22:23;;;;;;;25.25;13.10;;;11.20;99.90;;;;;;5069478;28;20028;-68
2022/04/23 03:24:48;;;;;;;23.80;11.98;;;11.20;99.90;;;;;;5068551;28;20392;-68
2022/04/23 03:27:15;;;;;;;28.23;12.77;;;11.20;99.90;;;;;;5067832;28;20175;-68
2022/04/23 03:29:40;;;;;;;26.13;13.07;;;11.30;99.90;;;;;;5071319;28;20032;-68
2022/04/23 03:32:06;;;;;;;29.95;12.95;;;11.20;99.90;;;;;;5071650;28;20028;-67
2022/04/23 03:34:32;;;;;;;32.25;14.15;;;11.30;99.90;;;;;;5071588;28;20173;-67
2022/04/23 03:36:58;;;;;;;32.22;12.98;;;11.30;99.90;;;;;;5071596;28;20504;-66
2022/04/23 03:39:24;;;;;;;28.40;14.13;;;11.30;99.90;;;;;;5071011;28;20056;-67
2022/04/23 03:41:50;;;;;;;32.28;13.98;;;11.30;99.90;;;;;;5053484;28;20025;-67
2022/04/23 03:44:16;;;;;;;28.15;13.27;;;11.30;99.90;;;;;;5051783;28;20048;-67
2022/04/23 03:46:41;;;;;;;35.45;15.68;;;11.30;99.90;;;;;;5051704;28;20029;-67
2022/04/23 03:49:08;;;;;;;32.20;15.13;;;11.30;99.90;;;;;;5051725;28;20025;-67
2022/04/23 03:51:34;;;;;;;26.65;14.60;;;11.30;99.90;;;;;;5051579;28;20214;-67
2022/04/23 03:54:01;;;;;;;28.40;15.00;;;11.30;99.90;;;;;;5051385;28;20029;-67
2022/04/23 03:56:27;;;;;;;35.88;15.35;;;11.30;99.90;;;;;;5067760;28;20044;-67
2022/04/23 03:58:53;;;;;;;28.38;13.88;;;11.30;99.90;;;;;;5071103;28;20021;-67
2022/04/23 04:01:18;;;;;;;32.75;14.93;;;11.30;99.90;;;;;;5069825;28;20158;-67
2022/04/23 04:03:44;;;;;;;33.53;15.18;;;11.30;99.90;;;;;;5071034;28;20116;-68
2022/04/23 04:06:10;;;;;;;34.90;15.43;;;11.30;99.90;;;;;;5071184;28;20036;-67
2022/04/23 04:08:36;;;;;;;36.80;15.65;;;11.30;99.90;;;;;;5071013;28;20035;-68
2022/04/23 04:11:01;;;;;;;33.63;15.43;;;11.30;99.90;;;;;;5070810;28;20079;-68
2022/04/23 04:13:28;;;;;;;34.17;15.45;;;11.30;99.90;;;;;;5070763;28;20020;-69
2022/04/23 04:15:55;;;;;;;31.98;16.98;;;11.30;99.90;;;;;;5069662;28;20025;-67
2022/04/23 04:18:21;;;;;;;31.85;16.45;;;11.30;99.90;;;;;;5067958;28;20510;-67
2022/04/23 04:20:53;;;;;;;36.40;17.30;;;11.30;99.90;;;;;;5068316;28;20416;-67
2022/04/23 04:23:20;;;;;;;33.78;17.00;;;11.30;99.90;;;;;;5070881;28;20031;-67
2022/04/23 04:25:47;;;;;;;32.53;16.42;;;11.30;99.90;;;;;;5070485;28;20201;-67
2022/04/23 04:28:13;;;;;;;39.10;16.65;;;11.40;99.90;;;;;;5070512;28;20028;-67
2022/04/23 04:33:23;;;;;;;35.05;17.65;;;11.40;99.90;;;;;;5067855;28;20032;-67
2022/04/23 04:35:49;;;;;;;29.67;16.60;;;11.30;99.90;;;;;;5067140;28;20048;-68
2022/04/23 04:38:14;;;;;;;36.33;17.80;;;11.30;99.90;;;;;;5069795;28;20032;-67
2022/04/23 04:40:40;;;;;;;34.38;19.25;;;11.30;99.90;;;;;;5070343;28;20025;-67
2022/04/23 04:43:07;;;;;;;38.78;19.65;;;11.40;99.90;;;;;;5070550;28;20517;-67
2022/04/23 04:45:32;;;;;;;36.38;19.25;;;11.40;99.90;;;;;;5070206;28;20036;-66
2022/04/23 04:47:58;;;;;;;37.15;20.02;;;11.40;99.90;;;;;;5070151;28;20099;-67
2022/04/23 04:50:24;;;;;;;35.42;19.13;;;11.40;99.90;;;;;;5068868;28;20048;-67
2022/04/23 04:52:50;;;;;;;31.80;17.75;;;11.40;99.90;;;;;;5070229;28;20020;-67
2022/04/23 04:55:16;;;;;;;37.47;19.13;;;11.40;99.90;;;;;;5069986;28;20033;-67
2022/04/23 04:57:42;;;;;;;35.83;19.35;;;11.50;99.90;;;;;;5069924;28;20105;-67
2022/04/23 05:00:08;;;;;;;37.33;20.42;;;11.50;99.90;;;;;;5070253;28;20024;-67
2022/04/23 05:02:35;;;;;;;35.92;19.77;;;11.50;99.90;;;;;;5066918;28;20059;-67
2022/04/23 05:05:00;;;;;;;36.15;19.67;;;11.50;99.90;;;;;;5066751;28;20037;-67
2022/04/23 05:07:26;;;;;;;33.47;19.77;;;11.50;99.90;;;;;;5066816;28;20035;-66
2022/04/23 05:09:51;;;;;;;37.25;20.10;;;11.40;99.90;;;;;;5066889;28;20044;-66
2022/04/23 05:12:17;;;;;;;35.53;20.17;;;11.50;99.90;;;;;;5069012;28;20677;-67
2022/04/23 05:14:43;;;;;;;35.35;19.92;;;11.50;99.90;;;;;;5069738;28;20072;-67
2022/04/23 05:17:09;;;;;;;34.58;19.98;;;11.50;99.90;;;;;;5069940;28;20025;-67
2022/04/23 05:19:35;;;;;;;36.63;21.45;;;11.50;99.90;;;;;;5070261;28;20122;-67
2022/04/23 05:22:00;;;;;;;37.75;19.98;;;11.50;99.90;;;;;;5068234;28;20020;-69
2022/04/23 05:24:26;;;;;;;35.10;20.25;;;11.60;99.90;;;;;;5066556;28;20150;-69
2022/04/23 05:26:52;;;;;;;33.60;20.30;;;11.60;99.90;;;;;;5067729;28;20086;-66
2022/04/23 05:29:17;;;;;;;35.58;20.95;;;11.60;99.90;;;;;;5068956;28;20092;-67
2022/04/23 05:31:43;;;;;;;35.80;20.85;;;11.60;99.90;;;;;;5067960;28;20033;-67
2022/04/23 05:34:08;;;;;;;40.15;20.13;;;11.60;99.90;;;;;;5066295;28;20025;-66
2022/04/23 05:36:34;;;;;;;35.05;19.95;;;11.60;99.90;;;;;;5067666;28;20032;-69
2022/04/23 05:39:00;;;;;;;33.67;20.85;;;11.60;99.90;;;;;;5069863;28;20108;-68
2022/04/23 05:41:25;;;;;;;33.67;19.55;;;11.60;99.90;;;;;;5072106;28;20037;-67
2022/04/23 05:43:51;;;;;;;36.38;20.27;;;11.70;99.90;;;;;;5071014;28;20024;-67
2022/04/23 05:46:17;;;;;;;40.05;21.70;;;11.70;99.90;;;;;;5050533;28;20134;-67
2022/04/23 05:48:44;;;;;;;35.10;20.65;;;11.70;99.90;;;;;;5050389;28;20025;-67
2022/04/23 05:51:09;;;;;;;40.53;21.20;;;11.70;99.90;;;;;;5050488;28;20148;-67
2022/04/23 05:53:35;;;;;;;35.90;20.35;;;11.70;99.90;;;;;;5050545;28;20052;-67
2022/04/23 05:56:01;;;;;;;33.92;19.83;;;11.70;99.90;;;;;;5066134;28;20082;-67
2022/04/23 05:58:27;;;;;;;39.00;20.88;;;11.80;99.90;;;;;;5073904;28;20090;-67
2022/04/23 06:00:53;;;;;;;36.95;21.20;;;11.70;99.90;;;;;;5073363;28;20068;-67
2022/04/23 06:03:20;;;;;;;32.13;19.23;;;11.80;99.90;;;;;;5073345;28;20028;-66
2022/04/23 06:05:46;;;;;;;34.25;19.05;;;11.90;99.90;;;;;;5070145;28;20389;-69
2022/04/23 06:08:12;;;;;;;35.45;20.13;;;11.90;99.90;;;;;;5070132;28;20481;-66
2022/04/23 06:10:37;;;;;;;29.77;18.77;;;11.90;99.90;;;;;;5072546;28;20100;-67
2022/04/23 06:13:06;;;;;;;34.80;21.10;;;11.90;99.90;;;;;;5073489;28;20055;-67
2022/04/23 06:15:31;;;;;;;33.38;20.25;;;12.00;99.90;;;;;;5073207;28;20111;-67
2022/04/23 06:17:57;;;;;;;34.78;19.52;;;12.00;99.90;;;;;;5073346;28;20111;-69
2022/04/23 06:20:23;;;;;;;33.30;19.17;;;12.20;99.90;;;;;;5073099;28;20029;-67
2022/04/23 06:22:48;;;;;;;33.47;19.38;;;12.20;99.90;;;;;;5072575;28;20021;-69
2022/04/23 06:25:14;;;;;;;34.78;19.40;;;12.40;99.90;;;;;;5069916;28;20382;-67
2022/04/23 06:27:40;;;;;;;33.53;19.80;;;12.50;99.90;;;;;;5069643;28;20049;-67
2022/04/23 06:30:09;;;;;;;31.73;18.88;;;12.70;99.90;;;;;;5070880;28;20263;-67
2022/04/23 06:32:36;;;;;;;31.30;19.33;;;12.80;99.90;;;;;;5070148;28;20051;-67
2022/04/23 06:35:01;;;;;;;32.90;20.08;;;12.90;99.90;;;;;;5069818;28;20573;-68
2022/04/23 06:37:28;;;;;;;33.33;20.20;;;13.00;99.90;;;;;;5071686;28;20052;-67
2022/04/23 06:39:53;;;;;;;34.35;19.55;;;13.10;99.90;;;;;;5073017;28;20115;-68
2022/04/23 06:42:19;;;;;;;28.23;18.58;;;13.20;99.90;;;;;;5072510;28;20177;-68
2022/04/23 06:44:44;;;;;;;31.85;18.65;;;13.30;99.90;;;;;;5072329;28;20115;-67
2022/04/23 06:47:10;;;;;;;31.15;19.27;;;13.40;99.90;;;;;;5072556;28;20028;-67
2022/04/23 06:49:36;;;;;;;32.05;19.52;;;13.40;99.90;;;;;;5072637;28;20094;-67
2022/04/23 06:52:01;;;;;;;28.95;18.42;;;13.50;99.90;;;;;;5071526;28;20099;-69
2022/04/23 06:54:28;;;;;;;29.33;19.40;;;13.40;99.90;;;;;;5072472;28;20031;-70
2022/04/23 06:56:53;;;;;;;32.05;18.65;;;13.50;99.90;;;;;;5072626;28;20033;-69
2022/04/23 06:59:19;;;;;;;32.08;19.20;;;13.60;99.90;;;;;;5072419;28;20055;-69
2022/04/23 07:01:44;;;;;;;29.08;18.25;;;14.00;99.90;;;;;;5070900;28;20020;-69
2022/04/23 07:04:10;;;;;;;30.98;18.08;;;14.40;99.90;;;;;;5069017;28;20101;-69
2022/04/23 07:06:36;;;;;;;28.23;18.95;;;14.80;99.90;;;;;;5069061;28;20029;-69
2022/04/23 07:09:04;;;;;;;26.75;17.02;;;15.30;97.90;;;;;;5069133;28;20392;-69
2022/04/23 07:11:30;;;;;;;25.85;17.33;;;15.80;95.80;;;;;;5070073;28;20035;-69
2022/04/23 07:13:55;;;;;;;26.75;17.70;;;16.00;93.20;;;;;;5072319;28;20024;-69
2022/04/23 07:16:21;;;;;;;27.20;17.75;;;16.20;92.50;;;;;;5072129;28;20732;-69
2022/04/23 07:18:47;;;;;;;25.65;16.42;;;16.40;92.70;;;;;;5071601;28;20082;-72
2022/04/23 07:21:12;;;;;;;25.85;17.35;;;16.50;91.40;;;;;;5071935;28;20687;-70
2022/04/23 07:26:23;;;;;;;30.08;19.50;;;16.90;90.30;;;;;;5072038;28;20106;-69
2022/04/23 07:28:48;;;;;;;26.52;18.15;;;17.20;87.80;;;;;;5071932;28;20670;-70
2022/04/23 07:31:14;;;;;;;26.90;17.58;;;17.50;84.30;;;;;;5071007;28;20028;-70
2022/04/23 07:39:08;;;;;;;23.95;16.55;;;18.20;78.60;;;;;;5072033;28;20097;-70
2022/04/23 07:41:33;;;;;;;23.85;17.05;;;18.50;77.40;;;;;;5071354;28;20477;-70
2022/04/23 07:43:59;;;;;;;24.95;17.45;;;18.80;77.60;;;;;;5071478;28;20099;-71
2022/04/23 07:46:25;;;;;;;21.90;17.10;;;19.10;75.00;;;;;;5064631;28;20382;-70
2022/04/23 07:48:51;;;;;;;22.83;17.67;;;19.40;73.00;;;;;;5051520;28;20591;-70
2022/04/23 07:51:17;;;;;;;19.17;16.05;;;19.50;71.40;;;;;;5051360;28;20036;-70
2022/04/23 07:53:43;;;;;;;22.50;16.88;;;19.60;70.50;;;;;;5051773;28;20045;-70
2022/04/23 07:56:09;;;;;;;24.45;17.42;;;19.90;68.00;;;;;;5065640;28;20075;-71
2022/04/23 07:58:35;;;;;;;24.45;17.67;;;20.00;66.70;;;;;;5071201;28;20032;-70
2022/04/23 08:01:01;;;;;;;22.40;17.30;;;20.00;64.60;;;;;;5070919;28;20123;-70
2022/04/23 08:03:28;;;;;;;20.70;16.70;;;20.30;65.00;;;;;;5070617;28;20016;-69
2022/04/23 08:05:53;;;;;;;22.25;16.85;;;20.50;63.30;;;;;;5070597;28;20032;-70
2022/04/23 08:08:21;;;;;;;19.35;16.05;;;20.50;61.80;;;;;;5070956;28;20115;-69
2022/04/23 08:10:47;;;;;;;19.85;15.65;;;20.80;63.30;;;;;;5070900;28;20028;-71
2022/04/23 08:13:13;;;;;;;20.73;15.77;;;21.10;59.60;;;;;;5070919;28;20051;-70
2022/04/23 08:15:39;;;;;;;18.80;16.00;;;21.70;58.60;;;;;;5070929;28;20466;-70
2022/04/23 08:18:05;;;;;;;21.50;15.52;;;21.70;55.00;;;;;;5066882;28;20396;-70
2022/04/23 08:20:31;;;;;;;20.02;15.75;;;21.70;55.10;;;;;;5060856;28;20036;-69
2022/04/23 08:22:57;;;;;;;18.05;15.45;;;22.00;53.40;;;;;;5069222;28;20032;-69
2022/04/23 08:25:23;;;;;;;21.77;15.80;;;22.10;52.00;;;;;;5067274;28;20601;-70
2022/04/23 08:27:50;;;;;;;22.52;16.48;;;22.00;51.80;;;;;;5067252;28;20025;-68
2022/04/23 08:30:35;;;;;;;20.85;15.73;;;22.40;52.10;;;;;;5067804;28;20056;-68
2022/04/23 08:33:05;;;;;;;18.20;14.13;;;22.90;51.90;;;;;;5067828;28;20028;-68
2022/04/23 08:35:31;;;;;;;17.70;15.75;;;23.60;49.10;;;;;;5067517;28;20072;-68
2022/04/23 08:37:57;;;;;;;21.95;16.35;;;24.00;44.80;;;;;;5067554;28;20030;-70
2022/04/23 08:40:23;;;;;;;18.25;15.02;;;24.30;43.60;;;;;;5067474;28;20055;-69
2022/04/23 08:42:49;;;;;;;19.95;15.35;;;24.60;41.60;;;;;;5066710;28;20029;-69
2022/04/23 08:45:14;;;;;;;17.48;14.90;;;24.70;39.10;;;;;;5066833;28;20128;-70
2022/04/23 08:47:46;;;;;;;19.60;14.70;;;24.60;39.00;;;;;;5067277;28;20100;-76
2022/04/23 08:50:13;;;;;;;19.23;15.73;;;24.40;40.50;;;;;;5067355;28;20485;-71
2022/04/23 08:52:48;;;;;;;18.40;14.60;;;24.30;39.50;;;;;;5066143;28;20029;-69
2022/04/23 08:55:16;;;;;;;18.30;15.70;;;24.40;40.50;;;;;;5066491;28;20047;-71
2022/04/23 08:57:43;;;;;;;18.58;15.65;;;24.50;38.80;;;;;;5066225;28;20392;-68
2022/04/23 09:00:11;;;;;;;16.90;15.00;;;23.70;39.30;;;;;;5063735;28;20114;-69
2022/04/23 09:02:37;;;;;;;20.48;16.35;;;23.90;39.50;;;;;;5047084;28;20029;-69
2022/04/23 09:05:03;;;;;;;22.15;16.25;;;24.10;38.50;;;;;;5046873;28;20036;-71
2022/04/23 09:07:29;;;;;;;18.17;15.00;;;22.50;40.70;;;;;;5047191;28;20034;-70
2022/04/23 09:09:56;;;;;;;20.08;15.00;;;22.20;45.60;;;;;;5064512;28;20038;-70
2022/04/23 09:12:26;;;;;;;21.58;16.13;;;22.40;46.30;;;;;;5066988;28;20027;-70
2022/04/23 09:23:41;;;;;;;18.20;15.95;;;26.60;33.80;;;;;;5060698;28;20728;-71
2022/04/23 09:26:17;;;;;;;20.38;15.77;;;26.40;30.70;;;;;;5066319;28;20036;-71
2022/04/23 09:28:48;;;;;;;18.13;16.10;;;27.10;30.40;;;;;;5066796;28;20429;-72
2022/04/23 09:31:17;;;;;;;18.33;15.20;;;27.90;29.30;;;;;;5066449;28;20072;-72
2022/04/23 09:33:52;;;;;;;19.75;15.73;;;28.20;28.30;;;;;;5066888;28;20021;-72
2022/04/23 09:36:19;;;;;;;18.25;14.82;;;27.90;27.50;;;;;;5065202;28;20131;-72
2022/04/23 09:39:03;;;;;;;19.17;14.38;;;28.60;26.50;;;;;;5066765;28;20032;-72
2022/04/23 09:41:32;;;;;;;21.02;16.40;;;29.70;25.10;;;;;;5066954;28;20062;-72
2022/04/23 09:44:12;;;;;;;20.83;15.20;;;29.90;24.50;;;;;;5066786;28;20021;-73
2022/04/23 09:46:48;;;;;;;18.97;14.87;;;29.50;23.10;;;;;;5066722;28;20033;-70
2022/04/23 09:49:21;;;;;;;19.70;15.50;;;30.30;23.30;;;;;;5066455;28;20261;-71
2022/04/23 09:52:01;;;;;;;17.17;15.02;;;30.10;22.00;;;;;;5066465;28;20094;-71
2022/04/23 09:54:28;;;;;;;17.60;15.18;;;31.40;20.20;;;;;;5054033;28;20052;-71
2022/04/23 09:56:55;;;;;;;18.58;16.10;;;30.40;21.40;;;;;;5066280;28;20058;-71
2022/04/23 09:59:21;;;;;;;18.50;15.85;;;30.60;20.80;;;;;;5066680;28;20040;-69
2022/04/23 10:01:48;;;;;;;24.50;16.80;;;30.40;20.80;;;;;;5066089;28;20025;-71
2022/04/23 10:04:21;;;;;;;19.23;16.63;;;29.60;21.80;;;;;;5066633;28;20036;-70
2022/04/23 10:06:50;;;;;;;20.25;15.80;;;29.80;21.90;;;;;;5066248;28;20535;-70
2022/04/23 10:09:19;;;;;;;19.65;15.93;;;30.40;21.60;;;;;;5066446;28;20028;-70
2022/04/23 10:11:48;;;;;;;18.77;16.58;;;30.90;21.10;;;;;;5064853;28;20111;-69
2022/04/23 10:14:22;;;;;;;17.92;14.98;;;31.10;20.50;;;;;;5066129;28;20082;-70
2022/04/23 10:16:50;;;;;;;20.58;16.08;;;32.20;19.80;;;;;;5066163;28;20036;-71
2022/04/23 10:19:16;;;;;;;20.33;16.38;;;32.50;19.50;;;;;;5066086;28;20025;-72
2022/04/23 10:21:50;;;;;;;18.83;15.38;;;32.80;17.50;;;;;;5066226;28;20032;-71
2022/04/23 10:24:31;;;;;;;18.52;16.00;;;33.00;17.70;;;;;;5065953;28;20039;-70
2022/04/23 10:27:07;;;;;;;21.58;16.35;;;32.80;17.50;;;;;;5066225;28;20028;-70
2022/04/23 10:29:33;;;;;;;22.42;15.68;;;33.10;18.20;;;;;;5070061;28;20036;-69
2022/04/23 10:32:14;;;;;;;19.33;15.38;;;32.40;18.20;;;;;;5069911;28;20690;-69
2022/04/23 10:34:41;;;;;;;18.30;15.75;;;31.70;17.70;;;;;;5069356;28;20432;-70
2022/04/23 10:37:14;;;;;;;19.02;15.95;;;30.70;18.30;;;;;;5069707;28;20032;-69
2022/04/23 10:39:42;;;;;;;18.42;15.45;;;30.80;18.50;;;;;;5069584;28;20039;-71
2022/04/23 10:42:15;;;;;;;19.85;15.35;;;29.30;19.90;;;;;;5069641;28;20067;-70
2022/04/23 10:44:42;;;;;;;21.38;16.52;;;28.80;22.40;;;;;;5069552;28;20047;-67
2022/04/23 10:47:13;;;;;;;21.95;16.25;;;30.20;20.30;;;;;;5069912;28;20029;-67
2022/04/23 10:49:38;;;;;;;;;;;32.20;19.20;;;;;;5070176;28;20032;-67
2022/04/23 10:52:04;;;;;;;18.77;14.55;;;32.90;18.10;;;;;;5069416;28;19908;-68
2022/04/23 10:54:39;;;;;;;18.05;15.70;;;33.80;16.70;;;;;;5069386;28;20067;-70
2022/04/23 10:57:08;;;;;;;22.55;17.10;;;32.60;17.00;;;;;;5069224;28;20013;-69
2022/04/23 10:59:45;;;;;;;19.20;15.37;;;30.90;18.80;;;;;;5069594;28;20056;-69
2022/04/23 11:02:19;;;;;;;19.05;15.43;;;32.30;18.20;;;;;;5069213;28;20258;-69
2022/04/23 11:14:26;;;;;;;20.17;16.00;;;32.40;17.80;;;;;;5049079;28;20421;-69
2022/04/23 11:16:55;;;;;;;21.83;16.60;;;33.30;17.40;;;;;;5067561;28;20032;-68
2022/04/23 11:19:22;;;;;;;22.85;18.23;;;34.30;16.40;;;;;;5069028;28;20027;-70
2022/04/23 11:21:47;;;;;;;23.70;18.17;;;33.40;15.40;;;;;;5068947;28;20028;-70
2022/04/23 11:24:15;;;;;;;23.60;16.77;;;31.80;16.90;;;;;;5068951;28;20059;-71
2022/04/23 11:26:45;;;;;;;20.05;16.55;;;32.60;16.70;;;;;;5068220;28;20036;-69
2022/04/23 11:29:11;;;;;;;;;;;33.80;16.50;;;;;;5069452;28;20028;-70
2022/04/23 11:31:37;;;;;;;19.55;16.90;;;33.00;15.70;;;;;;5068687;28;19912;-68
2022/04/23 11:34:04;;;;;;;23.40;17.52;;;33.10;15.70;;;;;;5068906;28;20037;-71
2022/04/23 11:36:31;;;;;;;19.52;15.60;;;33.80;15.70;;;;;;5068412;28;20052;-70
2022/04/23 11:39:05;;;;;;;20.35;17.60;;;34.10;16.10;;;;;;5067075;28;20119;-72
2022/04/23 11:41:35;;;;;;;21.55;16.95;;;34.10;15.30;;;;;;5068460;28;20472;-70
2022/04/23 11:47:09;;;;;;;23.13;18.13;;;32.90;16.50;;;;;;5068099;28;20157;-73
2022/04/23 11:49:35;;;;;;;21.33;16.70;;;32.70;15.90;;;;;;5068284;28;20429;-73
2022/04/23 11:52:06;;;;;;;25.65;18.20;;;33.20;15.90;;;;;;5068648;28;20187;-72
2022/04/23 11:54:41;;;;;;;;;;;33.20;15.90;;;;;;5069305;28;20042;-72
2022/04/23 11:57:12;;;;;;;24.30;17.25;;;33.20;16.20;;;;;;5068081;28;19905;-71
2022/04/23 11:59:45;;;;;;;25.35;18.08;;;33.50;15.80;;;;;;5068324;28;20055;-75
2022/04/23 12:02:21;;;;;;;21.48;17.70;;;33.40;15.80;;;;;;5056396;28;20029;-73
2022/04/23 12:04:51;;;;;;;20.52;17.65;;;33.30;15.10;;;;;;5047724;28;20401;-72
2022/04/23 12:07:17;;;;;;;19.20;15.90;;;33.50;15.60;;;;;;5048658;28;20074;-71
2022/04/23 12:09:54;;;;;;;19.52;17.08;;;34.10;15.70;;;;;;5048019;28;20438;-73
2022/04/23 12:12:25;;;;;;;19.17;16.73;;;33.80;15.10;;;;;;5048022;28;20028;-72
2022/04/23 12:14:55;;;;;;;20.83;17.05;;;33.70;14.40;;;;;;5047919;28;20025;-72
2022/04/23 12:17:26;;;;;;;19.33;16.13;;;33.90;15.40;;;;;;5047895;28;20452;-71
2022/04/23 12:19:54;;;;;;;19.55;16.30;;;35.10;13.80;;;;;;5047949;28;20033;-71
2022/04/23 12:22:27;;;;;;;19.70;15.88;;;34.80;14.00;;;;;;5047663;28;20021;-71
2022/04/23 12:25:16;;;;;;;22.70;16.80;;;34.80;13.70;;;;;;5051256;28;20048;-71
2022/04/23 12:28:00;;;;;;;17.80;15.05;;;34.90;13.20;;;;;;5067340;28;20025;-71
2022/04/23 12:42:10;;;;;;;25.42;17.92;;;32.10;14.90;;;;;;5066590;28;20078;-71
2022/04/23 12:44:42;;;;;;;18.73;16.58;;;31.20;16.00;;;;;;5067642;28;20032;-73
2022/04/23 12:47:09;;;;;;;21.30;18.25;;;32.10;15.80;;;;;;5067068;28;20122;-69
2022/04/23 12:49:48;;;;;;;21.33;17.88;;;31.90;16.10;;;;;;5066970;28;20035;-69
2022/04/23 12:52:20;;;;;;;23.88;19.33;;;32.50;15.80;;;;;;5067020;28;20035;-70
2022/04/23 12:55:17;;;;;;;21.05;18.08;;;31.70;15.10;;;;;;5067384;28;20275;-71
2022/04/23 12:57:53;;;;;;;24.33;18.83;;;31.70;15.50;;;;;;5067199;28;20040;-70
2022/04/23 13:00:21;;;;;;;26.15;19.15;;;31.20;16.40;;;;;;5066697;28;20481;-71
2022/04/23 13:02:52;;;;;;;29.38;19.95;;;29.70;16.30;;;;;;5067343;28;20033;-71
2022/04/23 13:05:18;;;;;;;25.27;21.15;;;28.10;18.20;;;;;;5067295;28;20044;-70
2022/04/23 13:10:28;;;;;;;26.15;18.23;;;28.20;20.20;;;;;;5066729;28;20055;-70
2022/04/23 13:12:54;;;;;;;24.20;18.83;;;28.00;20.10;;;;;;5066967;28;20024;-70
2022/04/23 13:15:20;;;;;;;25.33;19.58;;;26.70;20.30;;;;;;5066810;28;20107;-69
2022/04/23 13:17:47;;;;;;;25.48;18.40;;;26.30;21.30;;;;;;5066964;28;20111;-71